Time;durP1;ratioP1;P1;durP2;ratioP2;P2;SDS_P1;SDS_P2;PMS_P1;PMS_P2;Temp;Humidity;BMP_temperature;BMP_pressure;BME280_temperature;BME280_humidity;BME280_pressure;Samples;Min_cycle;Max_cycle;Signal;HPM_P1;HPM_P2
2023/02/19 00:01:32;;;;;;;4.72;3.80;;;21.70;35.80;;;;;;5055311;28;20063;-63
2023/02/19 00:04:04;;;;;;;3.75;3.45;;;21.70;35.90;;;;;;5056377;28;20041;-63
2023/02/19 00:06:32;;;;;;;3.33;3.03;;;21.70;35.90;;;;;;5056681;28;20137;-64
2023/02/19 00:09:00;;;;;;;4.18;3.78;;;21.70;35.90;;;;;;5054599;28;20053;-63
2023/02/19 00:11:30;;;;;;;4.07;3.65;;;21.70;35.90;;;;;;5056452;28;20045;-63
2023/02/19 00:13:59;;;;;;;4.30;3.90;;;21.70;35.90;;;;;;5056241;28;20049;-63
2023/02/19 00:16:30;;;;;;;3.97;3.60;;;21.70;35.90;;;;;;5056075;28;20044;-63
2023/02/19 00:18:58;;;;;;;5.18;3.88;;;21.70;35.90;;;;;;5056236;28;20080;-63
2023/02/19 00:21:26;;;;;;;3.72;3.33;;;21.70;35.90;;;;;;5056085;28;20572;-63
2023/02/19 00:24:04;;;;;;;4.45;3.55;;;21.70;35.90;;;;;;5056426;28;20071;-63
2023/02/19 00:26:31;;;;;;;4.00;3.60;;;21.70;35.90;;;;;;5055628;28;20048;-63
2023/02/19 00:29:00;;;;;;;4.38;3.60;;;21.70;35.90;;;;;;5055732;28;20055;-63
2023/02/19 00:31:33;;;;;;;3.83;3.47;;;21.70;35.90;;;;;;5056197;28;20142;-63
2023/02/19 00:34:03;;;;;;;4.20;3.80;;;21.70;35.90;;;;;;5055814;28;20413;-63
2023/02/19 00:36:31;;;;;;;4.90;3.47;;;21.70;35.90;;;;;;5054765;28;20049;-63
2023/02/19 00:38:58;;;;;;;3.55;3.25;;;21.70;35.90;;;;;;5055684;28;20052;-63
2023/02/19 00:41:26;;;;;;;4.40;4.00;;;21.70;35.90;;;;;;5055622;28;20041;-63
2023/02/19 00:43:58;;;;;;;3.80;3.50;;;21.70;35.90;;;;;;5055579;28;20059;-63
2023/02/19 00:46:28;;;;;;;3.20;3.00;;;21.70;35.90;;;;;;5055624;28;20131;-63
2023/02/19 00:48:57;;;;;;;5.05;4.13;;;21.60;35.90;;;;;;5055502;28;20052;-63
2023/02/19 00:51:26;;;;;;;3.63;3.28;;;21.70;35.90;;;;;;5055806;28;20073;-63
2023/02/19 00:53:53;;;;;;;3.60;3.30;;;21.70;35.90;;;;;;5054763;28;20136;-63
2023/02/19 00:56:21;;;;;;;4.05;3.65;;;21.60;35.90;;;;;;5055316;28;20045;-63
2023/02/19 00:58:48;;;;;;;3.58;3.15;;;21.60;35.90;;;;;;5055298;28;20059;-63
2023/02/19 01:01:16;;;;;;;4.57;3.70;;;21.60;35.90;;;;;;5054929;28;20132;-63
2023/02/19 01:03:44;;;;;;;3.88;3.45;;;21.60;35.90;;;;;;5055023;28;20061;-63
2023/02/19 01:06:13;;;;;;;3.15;2.85;;;21.60;35.90;;;;;;5054564;28;20473;-63
2023/02/19 01:08:40;;;;;;;4.32;3.67;;;21.60;36.00;;;;;;5054308;28;20044;-62
2023/02/19 01:11:09;;;;;;;3.75;3.38;;;21.60;35.90;;;;;;5054877;28;20481;-63
2023/02/19 01:13:37;;;;;;;3.22;3.00;;;21.60;35.90;;;;;;5054773;28;20056;-63
2023/02/19 01:16:08;;;;;;;3.10;2.85;;;21.60;35.90;;;;;;5055103;28;20081;-63
2023/02/19 01:18:35;;;;;;;3.50;3.20;;;21.60;36.00;;;;;;5055299;28;20045;-63
2023/02/19 01:21:08;;;;;;;3.70;3.40;;;21.60;35.90;;;;;;5053646;28;20049;-63
2023/02/19 01:23:35;;;;;;;3.67;3.08;;;21.60;36.00;;;;;;5055318;28;20045;-63
2023/02/19 01:26:10;;;;;;;4.15;3.80;;;21.60;36.00;;;;;;5054835;28;20516;-63
2023/02/19 01:28:37;;;;;;;3.60;3.30;;;21.60;36.00;;;;;;5053928;28;20045;-63
2023/02/19 01:31:06;;;;;;;4.05;3.65;;;21.60;36.00;;;;;;5054458;28;20410;-63
2023/02/19 01:33:34;;;;;;;4.00;3.60;;;21.60;36.00;;;;;;5054419;28;20049;-63
2023/02/19 01:36:05;;;;;;;3.88;3.53;;;21.60;36.00;;;;;;5054999;28;20412;-63
2023/02/19 01:38:33;;;;;;;4.10;3.70;;;21.60;36.00;;;;;;5054644;28;20561;-63
2023/02/19 01:41:02;;;;;;;3.63;2.90;;;21.50;35.90;;;;;;5054397;28;20153;-63
2023/02/19 01:43:53;;;;;;;3.45;3.15;;;21.60;36.00;;;;;;5054699;28;20055;-63
2023/02/19 01:46:20;;;;;;;4.18;3.58;;;21.60;36.00;;;;;;5054771;28;20405;-63
2023/02/19 01:48:47;;;;;;;3.47;3.17;;;21.60;36.00;;;;;;5054099;28;20045;-63
2023/02/19 01:51:19;;;;;;;3.92;3.58;;;21.50;36.00;;;;;;5054208;28;20411;-63
2023/02/19 01:53:54;;;;;;;3.45;3.15;;;21.50;36.00;;;;;;5053869;28;20048;-63
2023/02/19 01:56:24;;;;;;;4.00;3.65;;;21.50;36.00;;;;;;5053954;28;20045;-63
2023/02/19 01:58:51;;;;;;;3.20;2.90;;;21.50;36.00;;;;;;5054238;28;20059;-63
2023/02/19 02:01:19;;;;;;;3.20;3.00;;;21.50;36.00;;;;;;5053485;28;20424;-63
2023/02/19 02:03:48;;;;;;;3.60;3.30;;;21.50;36.00;;;;;;5054558;28;20048;-63
2023/02/19 02:06:23;;;;;;;3.97;3.60;;;21.50;36.00;;;;;;5054023;28;20067;-63
2023/02/19 02:11:50;;;;;;;3.38;3.08;;;21.50;36.00;;;;;;5054284;28;20048;-63
2023/02/19 02:14:23;;;;;;;3.13;2.83;;;21.50;36.00;;;;;;5054224;28;20051;-63
2023/02/19 02:17:05;;;;;;;3.45;3.15;;;21.50;36.00;;;;;;5053878;28;20049;-63
2023/02/19 02:20:01;;;;;;;3.10;2.85;;;21.50;36.00;;;;;;5054223;28;20124;-63
2023/02/19 02:22:36;;;;;;;3.72;3.33;;;21.50;36.00;;;;;;5053606;28;20045;-63
2023/02/19 02:25:31;;;;;;;3.30;3.10;;;21.50;36.00;;;;;;5052763;28;20409;-63
2023/02/19 02:28:32;;;;;;;3.42;2.80;;;21.50;36.00;;;;;;5052570;28;20127;-63
2023/02/19 02:31:05;;;;;;;3.58;3.28;;;21.50;36.00;;;;;;5053330;28;20088;-63
2023/02/19 02:33:41;;;;;;;3.60;3.30;;;21.50;36.00;;;;;;5053912;28;20048;-63
2023/02/19 02:36:17;;;;;;;3.33;3.03;;;21.50;36.00;;;;;;5053694;28;20143;-63
2023/02/19 02:38:45;;;;;;;4.35;3.28;;;21.50;36.00;;;;;;5053206;28;20048;-63
2023/02/19 02:41:14;;;;;;;3.58;3.22;;;21.50;36.00;;;;;;5052978;28;20505;-63
2023/02/19 02:43:41;;;;;;;3.58;3.28;;;21.50;36.00;;;;;;5053412;28;20053;-63
2023/02/19 02:46:14;;;;;;;3.38;3.08;;;21.50;36.00;;;;;;5053309;28;20515;-63
2023/02/19 02:48:52;;;;;;;3.40;3.10;;;21.50;36.00;;;;;;5053599;28;20128;-63
2023/02/19 02:51:28;;;;;;;3.28;2.80;;;21.50;36.00;;;;;;5053194;28;20132;-63
2023/02/19 02:56:58;;;;;;;3.03;2.83;;;21.50;36.00;;;;;;5052963;28;20100;-63
2023/02/19 02:59:29;;;;;;;4.13;3.67;;;21.50;36.00;;;;;;5053439;28;20053;-63
2023/02/19 03:02:10;;;;;;;3.50;3.20;;;21.50;36.00;;;;;;5052839;28;20462;-63
2023/02/19 03:08:13;;;;;;;3.50;3.20;;;21.40;36.00;;;;;;5049963;28;20063;-63
2023/02/19 03:10:56;;;;;;;3.58;3.28;;;21.50;36.00;;;;;;5053294;28;20055;-63
2023/02/19 03:19:18;;;;;;;3.88;3.17;;;21.50;36.00;;;;;;5052679;28;20199;-63
2023/02/19 03:21:52;;;;;;;3.08;2.78;;;21.50;36.10;;;;;;5053177;28;20048;-63
2023/02/19 03:27:22;;;;;;;3.40;3.10;;;21.50;36.10;;;;;;5052995;28;20049;-63
2023/02/19 03:29:52;;;;;;;4.88;3.30;;;21.40;36.00;;;;;;5052717;28;20051;-63
2023/02/19 03:32:35;;;;;;;3.33;3.03;;;21.50;36.10;;;;;;5052935;28;20055;-63
2023/02/19 03:35:13;;;;;;;3.35;3.05;;;21.50;36.10;;;;;;5052839;28;20049;-63
2023/02/19 03:37:59;;;;;;;3.33;3.03;;;21.40;36.00;;;;;;5052692;28;20060;-63
2023/02/19 03:40:30;;;;;;;3.15;2.88;;;21.40;36.00;;;;;;5052772;28;20132;-63
2023/02/19 03:43:23;;;;;;;3.65;3.35;;;21.40;36.00;;;;;;5051218;28;20131;-63
2023/02/19 03:46:22;;;;;;;3.40;3.10;;;21.40;36.00;;;;;;5052288;28;20045;-63
2023/02/19 03:49:01;;;;;;;3.28;2.97;;;21.40;36.00;;;;;;5051748;28;20071;-63
2023/02/19 03:51:43;;;;;;;3.33;3.03;;;21.40;36.00;;;;;;5053115;28;20056;-63
2023/02/19 03:54:22;;;;;;;3.03;2.72;;;21.40;36.00;;;;;;5052892;28;20120;-64
2023/02/19 03:57:06;;;;;;;3.15;2.90;;;21.40;36.00;;;;;;5052410;28;20131;-63
2023/02/19 03:59:54;;;;;;;2.83;2.63;;;21.40;36.00;;;;;;5052601;28;20053;-63
2023/02/19 04:02:32;;;;;;;3.17;2.88;;;21.40;36.00;;;;;;5051967;28;20128;-63
2023/02/19 04:05:17;;;;;;;2.70;2.50;;;21.40;36.00;;;;;;5050814;28;20489;-63
2023/02/19 04:07:48;;;;;;;2.88;2.67;;;21.40;36.00;;;;;;5052423;28;20600;-63
2023/02/19 04:10:16;;;;;;;3.35;3.05;;;21.40;36.00;;;;;;5051612;28;20459;-63
2023/02/19 04:12:52;;;;;;;3.30;3.00;;;21.40;36.10;;;;;;5051892;28;20049;-63
2023/02/19 04:15:26;;;;;;;2.47;2.28;;;21.40;36.10;;;;;;5052651;28;20127;-63
2023/02/19 04:17:59;;;;;;;2.95;2.75;;;21.40;36.60;;;;;;5051838;28;20131;-63
2023/02/19 04:20:31;;;;;;;3.75;3.35;;;21.40;36.10;;;;;;5052357;28;20501;-63
2023/02/19 04:22:58;;;;;;;2.30;2.20;;;21.40;36.10;;;;;;5051960;28;20132;-63
2023/02/19 04:25:27;;;;;;;3.05;2.70;;;21.40;36.00;;;;;;5055607;28;20136;-63
2023/02/19 04:27:54;;;;;;;3.13;2.78;;;21.40;36.10;;;;;;5056290;28;20629;-63
2023/02/19 04:30:21;;;;;;;3.22;2.92;;;21.40;36.10;;;;;;5055862;28;20049;-63
2023/02/19 04:32:49;;;;;;;3.60;3.30;;;21.40;36.00;;;;;;5055925;28;20489;-63
2023/02/19 04:35:16;;;;;;;3.47;3.17;;;21.40;36.00;;;;;;5055455;28;20057;-63
2023/02/19 04:37:43;;;;;;;3.10;2.90;;;21.40;36.00;;;;;;5056205;28;20408;-63
2023/02/19 04:40:10;;;;;;;3.22;2.90;;;21.40;36.00;;;;;;5054233;28;20041;-63
2023/02/19 04:42:38;;;;;;;2.80;2.60;;;21.40;36.00;;;;;;5055190;28;20099;-63
2023/02/19 04:45:05;;;;;;;3.25;2.90;;;21.50;36.00;;;;;;5055936;28;20235;-63
2023/02/19 04:47:32;;;;;;;3.00;2.80;;;21.50;36.10;;;;;;5055710;28;20045;-63
2023/02/19 04:49:59;;;;;;;3.42;2.70;;;21.40;36.00;;;;;;5055876;28;20049;-63
2023/02/19 04:52:26;;;;;;;2.85;2.65;;;21.40;36.00;;;;;;5055039;28;20051;-63
2023/02/19 04:54:53;;;;;;;2.80;2.60;;;21.40;36.00;;;;;;5055450;28;20044;-63
2023/02/19 04:57:20;;;;;;;3.45;3.00;;;21.40;36.00;;;;;;5055306;28;20048;-64
2023/02/19 04:59:47;;;;;;;3.00;2.80;;;21.40;36.00;;;;;;5055724;28;20079;-63
2023/02/19 05:02:15;;;;;;;3.03;2.72;;;21.40;36.00;;;;;;5055158;28;20049;-63
2023/02/19 05:04:42;;;;;;;3.42;2.60;;;21.40;36.00;;;;;;5055328;28;20064;-63
2023/02/19 05:07:09;;;;;;;3.05;2.65;;;21.40;36.00;;;;;;5055047;28;20045;-63
2023/02/19 05:09:36;;;;;;;3.30;2.90;;;21.40;36.00;;;;;;5055243;28;20049;-63
2023/02/19 05:12:03;;;;;;;2.40;2.30;;;21.40;36.00;;;;;;5054642;28;20045;-63
2023/02/19 05:14:30;;;;;;;2.78;2.58;;;21.40;36.00;;;;;;5055202;28;20048;-63
2023/02/19 05:16:57;;;;;;;3.35;2.70;;;21.40;36.00;;;;;;5054960;28;20051;-63
2023/02/19 05:19:24;;;;;;;3.08;2.78;;;21.40;36.00;;;;;;5055203;28;20075;-63
2023/02/19 05:21:51;;;;;;;2.88;2.67;;;21.40;36.00;;;;;;5054803;28;20481;-63
2023/02/19 05:24:19;;;;;;;2.70;2.50;;;21.40;36.00;;;;;;5054941;28;20491;-63
2023/02/19 05:26:47;;;;;;;3.22;2.90;;;21.40;36.00;;;;;;5054840;28;20439;-63
2023/02/19 05:29:14;;;;;;;2.58;2.42;;;21.40;36.00;;;;;;5055186;28;20465;-63
2023/02/19 05:31:41;;;;;;;2.80;2.60;;;21.40;36.00;;;;;;5054843;28;20128;-63
2023/02/19 05:34:08;;;;;;;3.30;2.88;;;21.40;36.00;;;;;;5054832;28;20489;-63
2023/02/19 05:36:36;;;;;;;3.53;3.22;;;21.40;36.00;;;;;;5053729;28;20057;-63
2023/02/19 05:39:05;;;;;;;3.25;2.95;;;21.40;35.90;;;;;;5054781;28;20105;-63
2023/02/19 05:41:32;;;;;;;3.42;3.13;;;21.40;35.80;;;;;;5054335;28;20045;-63
2023/02/19 05:44:00;;;;;;;4.25;3.85;;;21.40;35.80;;;;;;5054361;28;20055;-63
2023/02/19 05:46:28;;;;;;;4.72;3.83;;;21.30;35.60;;;;;;5054489;28;20077;-63
2023/02/19 05:48:57;;;;;;;3.42;3.10;;;21.30;35.60;;;;;;5054423;28;20049;-63
2023/02/19 05:51:25;;;;;;;3.83;3.45;;;21.30;35.60;;;;;;5054105;28;20132;-63
2023/02/19 05:53:54;;;;;;;4.00;3.53;;;21.30;35.60;;;;;;5054679;28;20543;-63
2023/02/19 05:56:31;;;;;;;4.13;3.72;;;21.30;35.60;;;;;;5054194;28;20416;-63
2023/02/19 05:59:19;;;;;;;3.58;3.28;;;21.30;35.60;;;;;;5053600;28;20055;-63
2023/02/19 06:01:47;;;;;;;3.88;3.55;;;21.30;35.60;;;;;;5054037;28;20060;-63
2023/02/19 06:04:16;;;;;;;4.03;3.53;;;21.30;35.60;;;;;;5054189;28;20059;-63
2023/02/19 06:06:43;;;;;;;4.00;3.60;;;21.30;35.60;;;;;;5054422;28;20053;-63
2023/02/19 06:09:11;;;;;;;5.22;4.13;;;21.40;35.60;;;;;;5053846;28;20144;-63
2023/02/19 06:11:42;;;;;;;4.30;3.90;;;21.40;35.50;;;;;;5053730;28;20041;-63
2023/02/19 06:14:12;;;;;;;4.50;4.07;;;21.40;35.50;;;;;;5053988;28;20049;-62
2023/02/19 06:16:40;;;;;;;4.60;4.10;;;21.40;35.50;;;;;;5054222;28;20048;-63
2023/02/19 06:19:07;;;;;;;3.80;3.45;;;21.50;35.40;;;;;;5053691;28;20432;-63
2023/02/19 06:21:34;;;;;;;3.88;3.47;;;21.50;35.30;;;;;;5053720;28;20487;-63
2023/02/19 06:24:05;;;;;;;4.15;3.75;;;21.50;35.30;;;;;;5064267;28;20141;-63
2023/02/19 06:26:32;;;;;;;;;;;21.60;35.30;;;;;;5049944;28;20578;-64
2023/02/19 06:28:59;;;;;;;4.40;3.95;;;21.60;35.20;;;;;;5037564;28;19921;-62
2023/02/19 06:31:26;;;;;;;3.28;2.97;;;21.60;35.20;;;;;;5045460;28;20116;-63
2023/02/19 06:33:54;;;;;;;3.83;3.03;;;21.70;35.20;;;;;;5054106;28;20049;-62
2023/02/19 06:36:22;;;;;;;3.50;3.13;;;21.70;35.20;;;;;;5053621;28;20040;-63
2023/02/19 06:38:49;;;;;;;3.40;3.10;;;21.70;35.20;;;;;;5053697;28;20057;-62
2023/02/19 06:41:17;;;;;;;4.82;3.50;;;21.80;35.20;;;;;;5049086;28;20045;-63
2023/02/19 06:43:45;;;;;;;5.43;3.63;;;21.70;35.10;;;;;;5047650;28;20060;-62
2023/02/19 06:46:13;;;;;;;3.65;3.20;;;21.80;35.10;;;;;;5051674;28;20066;-62
2023/02/19 06:48:42;;;;;;;4.90;3.70;;;21.80;35.10;;;;;;5047457;28;20048;-63
2023/02/19 06:51:12;;;;;;;3.85;3.55;;;21.80;35.00;;;;;;5048112;28;20079;-63
2023/02/19 06:53:39;;;;;;;3.15;2.85;;;21.90;35.00;;;;;;5041640;28;20037;-63
2023/02/19 06:56:25;;;;;;;5.18;3.92;;;21.90;35.00;;;;;;5055602;28;20135;-62
2023/02/19 06:59:01;;;;;;;4.75;3.97;;;21.90;34.90;;;;;;5047176;28;20486;-62
2023/02/19 07:01:30;;;;;;;4.40;3.83;;;21.90;34.90;;;;;;5052416;28;20049;-62
2023/02/19 07:03:57;;;;;;;3.85;3.38;;;21.90;34.80;;;;;;5052848;28;20471;-61
2023/02/19 07:06:26;;;;;;;4.95;4.03;;;22.00;34.80;;;;;;5053323;28;20045;-62
2023/02/19 07:08:54;;;;;;;4.85;3.75;;;22.00;34.80;;;;;;5052176;28;20503;-62
2023/02/19 07:11:22;;;;;;;4.72;4.07;;;22.00;34.70;;;;;;5045432;28;20055;-62
2023/02/19 07:13:56;;;;;;;4.00;3.60;;;22.00;34.60;;;;;;5053830;28;20041;-62
2023/02/19 07:16:25;;;;;;;5.38;4.05;;;22.10;34.70;;;;;;5038009;28;20041;-62
2023/02/19 07:18:55;;;;;;;4.10;3.67;;;22.10;34.60;;;;;;5046056;28;20041;-62
2023/02/19 07:21:22;;;;;;;5.47;4.10;;;22.10;34.50;;;;;;5041663;28;20048;-62
2023/02/19 07:23:49;;;;;;;3.72;3.30;;;22.10;34.50;;;;;;5056111;28;20056;-62
2023/02/19 07:26:18;;;;;;;4.22;3.45;;;22.20;34.50;;;;;;5055310;28;20045;-62
2023/02/19 07:28:47;;;;;;;5.07;4.00;;;22.20;34.50;;;;;;5053383;28;20072;-62
2023/02/19 07:31:16;;;;;;;4.35;3.80;;;22.20;34.50;;;;;;5052998;28;20048;-62
2023/02/19 07:33:45;;;;;;;3.92;3.60;;;22.20;34.40;;;;;;5053355;28;20053;-62
2023/02/19 07:36:14;;;;;;;4.72;3.85;;;22.20;34.40;;;;;;5052603;28;20037;-62
2023/02/19 07:38:41;;;;;;;4.45;3.88;;;22.30;34.40;;;;;;5053141;28;20577;-62
2023/02/19 07:41:08;;;;;;;5.07;3.90;;;22.30;34.30;;;;;;5060989;28;20049;-62
2023/02/19 07:43:37;;;;;;;5.82;3.97;;;22.30;34.30;;;;;;5041403;28;20556;-62
2023/02/19 07:46:11;;;;;;;3.75;3.35;;;22.30;34.30;;;;;;5053172;28;20042;-62
2023/02/19 07:48:40;;;;;;;4.88;4.13;;;22.40;34.30;;;;;;5050443;28;20049;-61
2023/02/19 07:51:10;;;;;;;5.45;4.10;;;22.30;34.20;;;;;;5055220;28;20052;-62
2023/02/19 07:53:38;;;;;;;4.38;3.97;;;22.40;34.20;;;;;;5051335;28;20086;-62
2023/02/19 07:56:07;;;;;;;4.28;3.88;;;22.40;34.20;;;;;;5048724;28;21427;-62
2023/02/19 07:58:34;;;;;;;4.07;3.72;;;22.40;34.10;;;;;;5055687;28;20044;-64
2023/02/19 08:01:15;;;;;;;4.32;3.92;;;22.50;34.20;;;;;;5064334;28;20488;-62
2023/02/19 08:03:43;;;;;;;5.30;4.30;;;22.40;34.10;;;;;;5049336;28;20047;-62
2023/02/19 08:06:11;;;;;;;5.82;4.20;;;22.50;34.10;;;;;;5053036;28;20042;-62
2023/02/19 08:08:39;;;;;;;9.65;3.85;;;22.50;34.10;;;;;;5048419;28;20049;-62
2023/02/19 08:13:53;;;;;;;4.05;3.65;;;22.50;34.00;;;;;;5056705;28;20063;-64
2023/02/19 08:16:21;;;;;;;4.25;3.75;;;22.60;34.00;;;;;;5057362;28;21237;-64
2023/02/19 08:19:06;;;;;;;4.65;4.03;;;22.60;34.00;;;;;;5060901;28;20041;-64
2023/02/19 08:21:33;;;;;;;4.43;3.95;;;22.60;34.60;;;;;;5048142;28;20045;-64
2023/02/19 08:24:00;;;;;;;5.30;3.90;;;22.60;34.00;;;;;;5040666;28;20052;-62
2023/02/19 08:26:28;;;;;;;4.72;4.28;;;22.60;34.00;;;;;;5036752;28;20168;-63
2023/02/19 08:28:55;;;;;;;4.63;4.22;;;22.60;34.30;;;;;;5042599;28;20390;-64
2023/02/19 08:31:22;;;;;;;4.90;4.30;;;22.60;34.20;;;;;;5045079;28;20073;-63
2023/02/19 08:33:49;;;;;;;4.70;4.25;;;22.60;34.10;;;;;;5056942;28;20132;-63
2023/02/19 08:36:16;;;;;;;4.50;4.07;;;22.70;34.10;;;;;;5057749;28;20056;-61
2023/02/19 08:38:44;;;;;;;4.90;4.10;;;22.70;34.10;;;;;;5057018;28;20059;-61
2023/02/19 08:41:12;;;;;;;4.20;3.75;;;22.70;34.00;;;;;;5056383;28;20040;-61
2023/02/19 08:43:41;;;;;;;4.50;3.45;;;22.70;33.90;;;;;;5061427;28;20099;-62
2023/02/19 08:46:12;;;;;;;5.60;3.90;;;22.70;33.90;;;;;;5058482;28;20080;-61
2023/02/19 08:48:39;;;;;;;4.97;3.55;;;22.80;33.90;;;;;;5057484;28;20124;-62
2023/02/19 08:51:09;;;;;;;4.03;3.60;;;22.80;33.80;;;;;;5070238;28;20059;-61
2023/02/19 08:53:38;;;;;;;4.00;3.60;;;22.80;33.80;;;;;;5058739;28;20055;-61
2023/02/19 08:56:13;;;;;;;4.05;3.63;;;22.80;33.80;;;;;;5058404;28;20111;-61
2023/02/19 08:58:41;;;;;;;4.18;3.70;;;22.80;33.80;;;;;;5057487;28;20489;-61
2023/02/19 09:01:11;;;;;;;4.13;3.65;;;22.80;33.80;;;;;;5053276;28;20040;-61
2023/02/19 09:03:38;;;;;;;3.80;3.38;;;22.90;33.80;;;;;;5061296;28;20051;-61
2023/02/19 09:06:06;;;;;;;4.40;3.88;;;22.90;33.70;;;;;;5053709;28;20056;-61
2023/02/19 09:08:33;;;;;;;5.78;4.85;;;22.90;33.80;;;;;;5054215;28;20048;-61
2023/02/19 09:11:03;;;;;;;4.38;3.90;;;22.90;33.70;;;;;;5038526;28;20049;-61
2023/02/19 09:13:30;;;;;;;4.15;3.75;;;22.90;33.70;;;;;;5045505;28;20080;-61
2023/02/19 09:15:57;;;;;;;4.13;3.75;;;22.90;33.70;;;;;;5067096;28;20420;-61
2023/02/19 09:18:25;;;;;;;4.50;3.63;;;22.90;33.70;;;;;;5054383;28;20532;-61
2023/02/19 09:20:52;;;;;;;4.13;3.70;;;22.90;33.60;;;;;;5055054;28;20136;-61
2023/02/19 09:23:19;;;;;;;4.38;3.80;;;22.90;33.60;;;;;;5054771;28;20045;-61
2023/02/19 09:25:46;;;;;;;3.70;3.40;;;23.00;33.60;;;;;;5054975;28;20049;-61
2023/02/19 09:28:15;;;;;;;4.60;4.13;;;23.00;33.60;;;;;;5055098;28;20122;-61
2023/02/19 09:30:42;;;;;;;5.05;3.85;;;23.00;33.60;;;;;;5055129;28;20045;-61
2023/02/19 09:33:09;;;;;;;4.70;4.13;;;23.00;33.50;;;;;;5054558;28;20041;-61
2023/02/19 09:35:39;;;;;;;4.45;3.88;;;23.10;33.50;;;;;;5054584;28;20404;-61
2023/02/19 09:38:09;;;;;;;4.00;3.60;;;23.10;33.50;;;;;;5054728;28;20048;-61
2023/02/19 09:40:37;;;;;;;4.25;3.80;;;23.10;33.50;;;;;;5054571;28;20059;-61
2023/02/19 09:43:14;;;;;;;4.68;4.13;;;23.20;33.40;;;;;;5054392;28;20045;-61
2023/02/19 09:45:41;;;;;;;3.83;3.40;;;23.20;33.40;;;;;;5054527;28;20049;-61
2023/02/19 09:48:10;;;;;;;4.10;3.70;;;23.20;33.40;;;;;;5054759;28;20474;-61
2023/02/19 09:50:46;;;;;;;4.35;3.50;;;23.20;33.30;;;;;;5054236;28;20152;-61
2023/02/19 09:53:28;;;;;;;4.80;3.85;;;23.20;33.30;;;;;;5054306;28;20053;-61
2023/02/19 09:55:55;;;;;;;3.95;3.60;;;23.30;33.40;;;;;;5054022;28;20135;-61
2023/02/19 09:58:45;;;;;;;4.03;3.63;;;23.30;33.30;;;;;;5054343;28;20053;-61
2023/02/19 10:01:13;;;;;;;4.10;3.70;;;23.30;33.30;;;;;;5053854;28;20049;-61
2023/02/19 10:03:45;;;;;;;3.97;3.60;;;23.30;33.30;;;;;;5054274;28;20045;-61
2023/02/19 10:06:20;;;;;;;4.43;3.58;;;23.40;33.30;;;;;;5054132;28;20095;-62
2023/02/19 10:08:53;;;;;;;5.85;3.60;;;23.40;33.30;;;;;;5053698;28;20140;-61
2023/02/19 10:11:21;;;;;;;5.00;3.38;;;23.40;33.30;;;;;;5053631;28;20059;-61
2023/02/19 10:14:08;;;;;;;4.57;3.40;;;23.40;33.30;;;;;;5054354;28;20382;-61
2023/02/19 10:16:39;;;;;;;4.00;3.60;;;23.40;33.30;;;;;;5054179;28;20045;-61
2023/02/19 10:19:13;;;;;;;4.43;3.65;;;23.50;33.30;;;;;;5053693;28;20052;-61
2023/02/19 10:21:41;;;;;;;4.90;3.83;;;23.50;33.20;;;;;;5053317;28;20091;-61
2023/02/19 10:24:18;;;;;;;4.68;4.00;;;23.60;33.20;;;;;;5053934;28;20118;-61
2023/02/19 10:26:45;;;;;;;4.30;3.83;;;23.60;33.10;;;;;;5053998;28;20045;-61
2023/02/19 10:29:12;;;;;;;4.63;3.80;;;23.60;33.00;;;;;;5053544;28;20045;-61
2023/02/19 10:31:39;;;;;;;3.92;3.53;;;23.70;33.00;;;;;;5053486;28;20053;-61
2023/02/19 10:34:18;;;;;;;4.32;3.92;;;23.70;32.90;;;;;;5053471;28;20488;-61
2023/02/19 10:36:49;;;;;;;4.00;3.33;;;23.70;32.80;;;;;;5053831;28;20476;-61
2023/02/19 10:39:37;;;;;;;4.15;3.55;;;23.80;32.80;;;;;;5053333;28;20412;-62
2023/02/19 10:42:05;;;;;;;3.95;3.65;;;23.80;32.70;;;;;;5053255;28;20045;-61
2023/02/19 10:44:42;;;;;;;4.32;3.78;;;23.80;32.70;;;;;;5053686;28;20087;-61
2023/02/19 10:47:20;;;;;;;5.13;3.75;;;23.90;32.60;;;;;;5053478;28;20040;-61
2023/02/19 10:49:49;;;;;;;3.53;3.22;;;23.90;32.60;;;;;;5053406;28;20049;-61
2023/02/19 10:52:25;;;;;;;3.78;3.38;;;23.90;32.60;;;;;;5053253;28;20060;-61
2023/02/19 10:55:12;;;;;;;4.05;3.65;;;23.90;32.70;;;;;;5052117;28;20084;-61
2023/02/19 10:57:39;;;;;;;3.90;3.50;;;23.90;32.70;;;;;;5053141;28;20049;-61
2023/02/19 11:00:25;;;;;;;5.40;3.85;;;23.90;32.80;;;;;;5051791;28;20127;-61
2023/02/19 11:03:13;;;;;;;4.72;3.65;;;23.90;32.70;;;;;;5053092;28;20045;-61
2023/02/19 11:06:00;;;;;;;3.70;3.35;;;23.90;32.80;;;;;;5051890;28;20127;-61
2023/02/19 11:08:28;;;;;;;3.65;3.35;;;23.90;32.80;;;;;;5053446;28;20048;-61
2023/02/19 11:10:55;;;;;;;3.67;3.20;;;23.90;32.80;;;;;;5053054;28;20047;-61
2023/02/19 11:13:36;;;;;;;3.47;3.17;;;23.90;32.80;;;;;;5052515;28;20061;-61
2023/02/19 11:16:04;;;;;;;4.28;3.85;;;23.90;32.80;;;;;;5052885;28;20045;-62
2023/02/19 11:18:34;;;;;;;4.28;3.67;;;23.90;32.80;;;;;;5053026;28;20060;-62
2023/02/19 11:21:04;;;;;;;3.70;3.40;;;23.90;32.70;;;;;;5052606;28;20166;-62
2023/02/19 11:23:37;;;;;;;4.72;3.72;;;23.90;32.70;;;;;;5053291;28;20067;-62
2023/02/19 11:26:14;;;;;;;4.22;3.83;;;23.90;32.80;;;;;;5052811;28;20055;-62
2023/02/19 11:28:43;;;;;;;3.67;3.33;;;23.90;32.80;;;;;;5053200;28;20048;-62
2023/02/19 11:31:21;;;;;;;4.05;3.65;;;23.90;32.80;;;;;;5052240;28;20045;-62
2023/02/19 11:34:24;;;;;;;5.22;4.05;;;23.90;32.80;;;;;;5051762;28;20063;-62
2023/02/19 11:37:15;;;;;;;4.50;3.58;;;23.90;32.80;;;;;;5051696;28;20052;-62
2023/02/19 11:39:45;;;;;;;4.15;3.58;;;24.00;32.90;;;;;;5052978;28;20331;-62
2023/02/19 11:42:39;;;;;;;4.30;3.90;;;24.00;32.90;;;;;;5052932;28;20090;-62
2023/02/19 11:45:15;;;;;;;4.85;4.03;;;24.00;32.90;;;;;;5051543;28;20045;-62
2023/02/19 11:48:12;;;;;;;4.13;3.75;;;24.00;32.90;;;;;;5052185;28;20059;-62
2023/02/19 11:51:16;;;;;;;4.80;3.88;;;24.00;32.90;;;;;;5052701;28;20485;-62
2023/02/19 11:53:56;;;;;;;4.30;3.75;;;24.00;32.90;;;;;;5051569;28;20049;-62
2023/02/19 11:56:32;;;;;;;4.78;4.18;;;24.00;32.90;;;;;;5052627;28;20137;-62
2023/02/19 11:59:19;;;;;;;5.80;3.83;;;24.00;32.90;;;;;;5052592;28;20049;-62
2023/02/19 12:02:00;;;;;;;3.88;3.58;;;24.00;32.90;;;;;;5052838;28;20136;-62
2023/02/19 12:04:58;;;;;;;3.90;3.50;;;24.00;32.90;;;;;;5052322;28;20041;-62
2023/02/19 12:08:00;;;;;;;3.35;3.05;;;24.00;33.00;;;;;;5052308;28;20056;-62
2023/02/19 12:11:04;;;;;;;3.83;3.40;;;24.10;33.00;;;;;;5053015;28;20048;-64
2023/02/19 12:14:07;;;;;;;4.13;3.72;;;24.10;33.00;;;;;;5043155;28;20591;-62
2023/02/19 12:17:11;;;;;;;5.28;3.42;;;24.00;33.00;;;;;;5057586;28;20047;-62
2023/02/19 12:20:17;;;;;;;5.15;4.03;;;24.10;33.00;;;;;;5057324;28;20134;-62
2023/02/19 12:23:22;;;;;;;3.50;3.20;;;24.10;33.00;;;;;;5072177;28;20476;-63
2023/02/19 12:26:19;;;;;;;4.13;3.75;;;24.10;33.00;;;;;;5071668;28;20076;-62
2023/02/19 12:29:22;;;;;;;4.10;3.70;;;24.10;33.00;;;;;;5072483;28;20094;-62
2023/02/19 12:32:14;;;;;;;4.28;3.65;;;24.10;32.90;;;;;;5072322;28;20056;-62
2023/02/19 12:35:11;;;;;;;3.75;3.45;;;24.10;32.90;;;;;;5056130;28;20045;-62
2023/02/19 12:38:17;;;;;;;4.38;3.78;;;24.10;32.90;;;;;;5050572;28;20401;-62
2023/02/19 12:41:12;;;;;;;4.95;3.60;;;24.20;32.90;;;;;;5051392;28;20072;-62
2023/02/19 12:43:49;;;;;;;3.72;3.35;;;24.20;32.90;;;;;;5056830;28;20119;-62
2023/02/19 12:46:27;;;;;;;4.15;3.58;;;24.20;32.90;;;;;;5074716;28;20504;-62
2023/02/19 12:49:01;;;;;;;4.20;3.80;;;24.20;32.80;;;;;;5076028;28;20397;-62
2023/02/19 12:51:45;;;;;;;5.40;3.75;;;24.20;32.80;;;;;;5075538;28;20048;-62
2023/02/19 12:54:23;;;;;;;4.55;3.63;;;24.20;32.80;;;;;;5073892;28;20055;-62
2023/02/19 12:57:25;;;;;;;3.70;3.40;;;24.30;32.80;;;;;;5074110;28;20044;-62
2023/02/19 13:00:27;;;;;;;4.75;3.88;;;24.30;32.80;;;;;;5058658;28;20076;-62
2023/02/19 13:03:29;;;;;;;4.07;3.53;;;24.30;32.90;;;;;;5038254;28;20053;-62
2023/02/19 13:06:18;;;;;;;4.85;3.38;;;24.30;32.90;;;;;;5051951;28;20045;-62
2023/02/19 13:08:54;;;;;;;3.65;3.35;;;24.30;32.80;;;;;;5055588;28;20072;-62
2023/02/19 13:11:40;;;;;;;5.80;4.22;;;24.30;32.80;;;;;;5050680;28;20045;-62
2023/02/19 13:14:23;;;;;;;5.13;3.75;;;24.30;32.70;;;;;;5054122;28;20037;-62
2023/02/19 13:17:12;;;;;;;3.97;3.45;;;24.30;32.70;;;;;;5051902;28;20120;-62
2023/02/19 13:19:39;;;;;;;4.03;3.65;;;24.40;32.70;;;;;;5054010;28;20055;-62
2023/02/19 13:25:14;;;;;;;5.00;4.25;;;24.40;32.60;;;;;;5060701;28;20124;-62
2023/02/19 13:28:03;;;;;;;4.65;4.20;;;24.40;32.70;;;;;;5050660;28;20055;-63
2023/02/19 13:30:58;;;;;;;3.83;3.53;;;24.40;32.60;;;;;;5054598;28;20116;-62
2023/02/19 13:33:53;;;;;;;4.53;3.97;;;24.40;32.60;;;;;;5054289;28;20056;-62
2023/02/19 13:36:28;;;;;;;4.28;3.88;;;24.40;32.60;;;;;;5053372;28;20049;-62
2023/02/19 13:38:58;;;;;;;5.18;4.68;;;24.40;32.60;;;;;;5053450;28;20059;-62
2023/02/19 13:41:50;;;;;;;4.00;3.60;;;24.40;32.60;;;;;;5054437;28;20517;-62
2023/02/19 13:44:30;;;;;;;3.55;3.25;;;24.40;32.60;;;;;;5054305;28;20128;-62
2023/02/19 13:46:59;;;;;;;4.15;3.75;;;24.40;32.60;;;;;;5054656;28;20451;-62